Time;durP1;ratioP1;P1;durP2;ratioP2;P2;SDS_P1;SDS_P2;PMS_P1;PMS_P2;Temp;Humidity;BMP_temperature;BMP_pressure;BME280_temperature;BME280_humidity;BME280_pressure;Samples;Min_cycle;Max_cycle;Signal;HPM_P1;HPM_P2
2022/06/14 00:01:20;;;;;;;0.40;0.40;;;13.90;99.90;;;;;;5034282;28;20468;-75
2022/06/14 00:03:46;;;;;;;0.30;0.30;;;13.80;99.90;;;;;;5040905;28;20048;-75
2022/06/14 00:06:20;;;;;;;2.20;0.80;;;13.70;99.90;;;;;;5032420;28;20425;-76
2022/06/14 00:08:46;;;;;;;0.40;0.40;;;13.70;99.90;;;;;;5037389;28;20166;-75
2022/06/14 00:11:32;;;;;;;0.77;0.43;;;13.70;99.90;;;;;;5041108;28;20030;-75
2022/06/14 00:14:12;;;;;;;0.70;0.55;;;13.70;99.90;;;;;;5032573;28;20037;-75
2022/06/14 00:16:38;;;;;;;0.55;0.50;;;13.70;99.90;;;;;;5035335;28;20075;-76
2022/06/14 00:19:05;;;;;;;0.65;0.50;;;13.60;99.90;;;;;;5044447;28;20402;-76
2022/06/14 00:21:31;;;;;;;2.25;0.93;;;13.60;99.90;;;;;;5038980;28;20028;-76
2022/06/14 00:23:56;;;;;;;0.10;0.10;;;13.60;99.90;;;;;;5046286;28;20025;-76
2022/06/14 00:26:22;;;;;;;0.40;0.40;;;13.60;99.90;;;;;;5039336;28;20032;-75
2022/06/14 00:28:48;;;;;;;0.25;0.20;;;13.60;99.90;;;;;;5042084;28;20037;-76
2022/06/14 00:31:24;;;;;;;0.38;0.38;;;13.60;99.90;;;;;;5038559;28;20025;-75
2022/06/14 00:33:49;;;;;;;0.47;0.47;;;13.50;99.90;;;;;;5037687;28;20619;-76
2022/06/14 00:36:30;;;;;;;0.55;0.55;;;13.40;99.90;;;;;;5035538;28;20032;-76
2022/06/14 00:38:59;;;;;;;0.50;0.50;;;13.40;99.90;;;;;;5037779;28;20033;-76
2022/06/14 00:41:41;;;;;;;0.88;0.63;;;13.30;99.90;;;;;;5048407;28;21766;-77
2022/06/14 00:44:13;;;;;;;0.70;0.40;;;13.30;99.90;;;;;;5047878;28;20128;-75
2022/06/14 00:46:59;;;;;;;0.20;0.20;;;13.20;99.90;;;;;;5045100;28;20026;-76
2022/06/14 00:49:50;;;;;;;0.63;0.50;;;13.10;99.90;;;;;;5043327;28;20045;-76
2022/06/14 00:52:20;;;;;;;5.45;0.77;;;13.10;99.90;;;;;;5044888;28;20052;-75
2022/06/14 00:54:49;;;;;;;0.65;0.52;;;13.10;99.90;;;;;;5039723;28;20033;-74
2022/06/14 00:57:26;;;;;;;1.85;0.55;;;13.00;99.90;;;;;;5044808;28;20064;-75
2022/06/14 01:00:03;;;;;;;0.40;0.40;;;12.90;99.90;;;;;;5046954;28;20459;-75
2022/06/14 01:02:31;;;;;;;4.72;1.23;;;12.90;99.90;;;;;;5048534;28;20454;-76
2022/06/14 01:05:00;;;;;;;1.67;1.13;;;12.80;99.90;;;;;;5043400;28;20711;-75
2022/06/14 01:07:32;;;;;;;0.47;0.47;;;12.80;99.90;;;;;;5045851;28;20368;-76
2022/06/14 01:10:06;;;;;;;0.52;0.47;;;12.80;99.90;;;;;;5042215;28;20031;-76
2022/06/14 01:12:36;;;;;;;0.40;0.40;;;12.60;99.90;;;;;;5038590;28;20029;-75
2022/06/14 01:15:16;;;;;;;0.35;0.35;;;12.60;99.90;;;;;;5043386;28;20472;-75
2022/06/14 01:17:46;;;;;;;0.90;0.55;;;12.60;99.90;;;;;;5049373;28;20388;-76
2022/06/14 01:20:15;;;;;;;0.40;0.40;;;12.60;99.90;;;;;;5048351;28;20472;-76
2022/06/14 01:22:42;;;;;;;0.20;0.20;;;12.60;99.90;;;;;;5039739;28;20070;-76
2022/06/14 01:25:09;;;;;;;0.70;0.50;;;12.60;99.90;;;;;;5047910;28;20112;-75
2022/06/14 01:27:36;;;;;;;1.35;0.73;;;12.60;99.90;;;;;;5046543;28;20472;-75
2022/06/14 01:30:11;;;;;;;4.18;1.48;;;12.60;99.90;;;;;;5046848;28;20017;-76
2022/06/14 01:32:50;;;;;;;0.40;0.40;;;12.50;99.90;;;;;;5031813;28;20037;-76
2022/06/14 01:35:20;;;;;;;0.70;0.70;;;12.50;99.90;;;;;;5038721;28;20049;-76
2022/06/14 01:37:50;;;;;;;0.15;0.15;;;12.50;99.90;;;;;;5041135;28;20084;-75
2022/06/14 01:40:16;;;;;;;3.05;1.13;;;12.40;99.90;;;;;;5039174;28;20104;-75
2022/06/14 01:43:05;;;;;;;0.47;0.30;;;12.40;99.90;;;;;;5040117;28;20026;-75
2022/06/14 01:45:41;;;;;;;1.95;0.52;;;12.40;99.90;;;;;;5042416;28;20534;-75
2022/06/14 01:48:21;;;;;;;0.77;0.30;;;12.30;99.90;;;;;;5045196;28;20045;-75
2022/06/14 01:54:09;;;;;;;1.85;0.98;;;12.30;99.90;;;;;;5035372;28;20407;-75
2022/06/14 01:57:01;;;;;;;1.80;0.80;;;12.20;99.90;;;;;;5038545;28;20033;-76
2022/06/14 01:59:55;;;;;;;0.38;0.38;;;12.10;99.90;;;;;;5031435;28;20021;-76
2022/06/14 02:02:32;;;;;;;1.00;0.32;;;12.10;99.90;;;;;;5034857;28;20124;-75
2022/06/14 02:05:26;;;;;;;1.48;1.38;;;12.10;99.90;;;;;;5042218;28;20197;-76
2022/06/14 02:08:15;;;;;;;0.50;0.35;;;12.10;99.90;;;;;;5041333;28;20645;-75
2022/06/14 02:10:46;;;;;;;0.90;0.82;;;12.20;99.90;;;;;;5043492;28;20036;-75
2022/06/14 02:13:31;;;;;;;0.40;0.35;;;12.10;99.90;;;;;;5033902;28;20022;-75
2022/06/14 02:16:10;;;;;;;0.20;0.20;;;12.10;99.90;;;;;;5047265;28;20120;-76
2022/06/14 02:18:47;;;;;;;0.98;0.38;;;12.10;99.90;;;;;;5047708;28;20025;-76
2022/06/14 02:21:30;;;;;;;0.55;0.47;;;12.00;99.90;;;;;;5040820;28;20051;-76
2022/06/14 02:24:09;;;;;;;0.30;0.30;;;11.90;99.90;;;;;;5038794;28;20029;-76
2022/06/14 02:26:41;;;;;;;1.45;0.85;;;11.90;99.90;;;;;;5039479;28;20025;-75
2022/06/14 02:29:09;;;;;;;0.75;0.30;;;11.90;99.90;;;;;;5039072;28;20025;-76
2022/06/14 02:31:43;;;;;;;0.20;0.20;;;11.90;99.90;;;;;;5040870;28;20036;-74
2022/06/14 02:34:28;;;;;;;1.80;1.05;;;11.80;99.90;;;;;;5043577;28;20056;-75
2022/06/14 02:37:05;;;;;;;0.60;0.60;;;11.70;99.90;;;;;;5040129;28;20555;-76
2022/06/14 02:39:35;;;;;;;0.80;0.30;;;11.70;99.90;;;;;;5042804;28;20443;-75
2022/06/14 02:42:06;;;;;;;0.60;0.40;;;11.80;99.90;;;;;;5036825;28;20021;-75
2022/06/14 02:44:53;;;;;;;0.68;0.68;;;11.80;99.90;;;;;;5041628;28;20021;-75
2022/06/14 02:47:52;;;;;;;0.40;0.40;;;11.80;99.90;;;;;;5062642;28;20547;-76
2022/06/14 02:50:23;;;;;;;1.80;0.60;;;11.80;99.90;;;;;;5050645;28;20136;-76
2022/06/14 02:52:58;;;;;;;0.45;0.45;;;11.80;99.90;;;;;;5045140;28;20039;-75
2022/06/14 02:55:31;;;;;;;1.83;0.45;;;11.90;99.90;;;;;;5039767;28;20075;-75
2022/06/14 02:58:05;;;;;;;1.08;0.55;;;11.80;99.90;;;;;;5048368;28;20029;-75
2022/06/14 03:00:48;;;;;;;0.30;0.25;;;11.70;99.90;;;;;;5049060;28;20036;-76
2022/06/14 03:03:20;;;;;;;0.40;0.40;;;11.70;99.90;;;;;;5038756;28;20025;-75
2022/06/14 03:05:57;;;;;;;0.30;0.30;;;11.80;99.90;;;;;;5041755;28;20476;-75
2022/06/14 03:08:31;;;;;;;13.63;1.65;;;11.70;99.90;;;;;;5047653;28;20044;-76
2022/06/14 03:11:19;;;;;;;0.85;0.40;;;11.70;99.90;;;;;;5049435;28;20457;-76
2022/06/14 03:14:18;;;;;;;0.30;0.30;;;11.80;99.90;;;;;;5042867;28;20029;-75
2022/06/14 03:17:17;;;;;;;0.40;0.40;;;11.80;99.90;;;;;;5042386;28;20043;-76
2022/06/14 03:20:06;;;;;;;0.30;0.30;;;11.90;99.90;;;;;;5035554;28;20113;-75
2022/06/14 03:23:14;;;;;;;1.20;0.35;;;11.80;99.90;;;;;;5050728;28;20019;-75
2022/06/14 03:25:57;;;;;;;0.55;0.55;;;11.90;99.90;;;;;;5034229;28;20029;-76
2022/06/14 03:28:39;;;;;;;1.95;0.82;;;11.80;99.90;;;;;;5041002;28;20065;-75
2022/06/14 03:31:08;;;;;;;0.30;0.30;;;11.80;99.90;;;;;;5052098;28;20132;-75
2022/06/14 03:33:47;;;;;;;8.90;1.25;;;11.80;99.90;;;;;;5036993;28;20498;-74
2022/06/14 03:36:13;;;;;;;0.50;0.50;;;11.80;99.90;;;;;;5044408;28;20029;-75
2022/06/14 03:39:08;;;;;;;0.75;0.63;;;11.80;99.90;;;;;;5038439;28;20029;-75
2022/06/14 03:41:36;;;;;;;0.52;0.50;;;11.80;99.90;;;;;;5052372;28;20082;-75
2022/06/14 03:44:04;;;;;;;2.92;0.60;;;11.70;99.90;;;;;;5037901;28;20070;-75
2022/06/14 03:47:10;;;;;;;1.15;1.05;;;11.80;99.90;;;;;;5042008;28;20500;-75
2022/06/14 03:49:38;;;;;;;0.30;0.30;;;11.80;99.90;;;;;;5048927;28;20082;-76
2022/06/14 03:52:32;;;;;;;0.60;0.60;;;12.00;99.90;;;;;;5043963;28;20550;-75
2022/06/14 03:55:25;;;;;;;5.88;1.15;;;11.90;99.90;;;;;;5041560;28;20037;-74
2022/06/14 03:58:19;;;;;;;2.78;0.82;;;12.00;99.90;;;;;;5034923;28;20021;-76
2022/06/14 04:01:19;;;;;;;7.38;1.23;;;12.00;99.90;;;;;;5049176;28;20020;-75
2022/06/14 04:04:14;;;;;;;0.30;0.30;;;12.00;99.90;;;;;;5049392;28;20078;-74
2022/06/14 04:06:50;;;;;;;0.70;0.47;;;11.90;99.90;;;;;;5043763;28;20026;-75
2022/06/14 04:09:44;;;;;;;0.80;0.38;;;11.90;99.90;;;;;;5047874;28;20029;-75
2022/06/14 04:12:21;;;;;;;0.28;0.28;;;11.90;99.90;;;;;;5045702;28;20029;-76
2022/06/14 04:15:03;;;;;;;0.30;0.30;;;12.00;99.90;;;;;;5039444;28;20098;-76
2022/06/14 04:17:50;;;;;;;0.40;0.30;;;12.10;99.90;;;;;;5035042;28;20372;-75
2022/06/14 04:20:48;;;;;;;2.78;0.68;;;12.00;99.90;;;;;;5044017;28;20036;-75
2022/06/14 04:23:25;;;;;;;1.27;0.95;;;12.00;99.90;;;;;;5040873;28;20091;-76
2022/06/14 04:26:09;;;;;;;0.17;0.17;;;12.10;99.90;;;;;;5054695;28;20058;-75
2022/06/14 04:28:50;;;;;;;0.95;0.57;;;12.10;99.90;;;;;;5041046;28;20490;-75
2022/06/14 04:31:29;;;;;;;0.85;0.85;;;12.10;99.90;;;;;;5045743;28;20053;-75
2022/06/14 04:34:08;;;;;;;0.77;0.77;;;12.30;99.90;;;;;;5046895;28;20064;-75
2022/06/14 04:36:43;;;;;;;0.50;0.40;;;12.40;99.90;;;;;;5045174;28;20028;-74
2022/06/14 04:39:21;;;;;;;1.10;0.73;;;12.50;99.90;;;;;;5038993;28;20032;-74
2022/06/14 04:42:12;;;;;;;2.50;0.70;;;12.60;99.90;;;;;;5044441;28;20408;-74
2022/06/14 04:44:47;;;;;;;0.70;0.50;;;12.50;99.90;;;;;;5037712;28;20143;-75
2022/06/14 04:47:19;;;;;;;0.70;0.70;;;12.70;99.90;;;;;;5038224;28;20163;-74
2022/06/14 04:50:02;;;;;;;4.15;2.47;;;12.80;99.90;;;;;;5049623;28;20059;-75
2022/06/14 04:52:42;;;;;;;0.30;0.30;;;12.80;99.90;;;;;;5056678;28;20074;-75
2022/06/14 04:55:13;;;;;;;0.60;0.60;;;12.80;99.90;;;;;;5046084;28;20049;-75
2022/06/14 04:57:50;;;;;;;0.55;0.43;;;12.80;99.90;;;;;;5038718;28;20079;-74
2022/06/14 05:00:20;;;;;;;2.85;0.60;;;12.90;99.90;;;;;;5041370;28;20097;-74
2022/06/14 05:03:12;;;;;;;1.20;0.65;;;12.80;99.90;;;;;;5044201;28;20113;-75
2022/06/14 05:05:45;;;;;;;5.15;0.50;;;12.80;99.90;;;;;;5043841;28;20112;-74
2022/06/14 05:08:16;;;;;;;0.68;0.68;;;12.80;99.90;;;;;;5049417;28;20036;-76
2022/06/14 05:10:50;;;;;;;3.85;1.23;;;12.90;99.90;;;;;;5050179;28;20494;-74
2022/06/14 05:13:27;;;;;;;1.88;1.40;;;12.90;99.90;;;;;;5047214;28;20033;-79
2022/06/14 05:16:09;;;;;;;1.52;0.30;;;12.90;99.90;;;;;;5057950;28;20113;-79
2022/06/14 05:18:47;;;;;;;2.63;0.93;;;12.90;99.90;;;;;;5054182;28;20025;-77
2022/06/14 05:21:25;;;;;;;0.50;0.40;;;12.80;99.90;;;;;;5052929;28;20103;-77
2022/06/14 05:23:54;;;;;;;1.50;0.50;;;12.80;99.90;;;;;;5053899;28;20044;-79
2022/06/14 05:26:50;;;;;;;1.15;0.43;;;13.00;99.90;;;;;;5055205;28;20123;-76
2022/06/14 05:29:55;;;;;;;0.30;0.30;;;13.20;99.90;;;;;;5055470;28;20372;-78
2022/06/14 05:32:49;;;;;;;2.72;1.13;;;13.10;99.90;;;;;;5049968;28;20502;-76
2022/06/14 05:35:21;;;;;;;1.02;0.75;;;13.10;99.90;;;;;;5038836;28;20128;-74
2022/06/14 05:37:55;;;;;;;0.30;0.30;;;13.10;99.90;;;;;;5057394;28;20024;-75
2022/06/14 05:40:26;;;;;;;0.82;0.82;;;13.30;99.90;;;;;;5036923;28;20028;-76
2022/06/14 05:42:58;;;;;;;0.55;0.55;;;13.30;99.90;;;;;;5036228;28;20081;-75
2022/06/14 05:45:26;;;;;;;0.98;0.60;;;13.30;99.90;;;;;;5048300;28;20037;-75
2022/06/14 05:47:58;;;;;;;0.90;0.50;;;13.40;99.90;;;;;;5034684;28;20026;-75
2022/06/14 05:50:27;;;;;;;2.67;1.10;;;13.50;99.90;;;;;;5038325;28;20051;-75
2022/06/14 05:53:05;;;;;;;5.32;0.47;;;13.60;99.90;;;;;;5041566;28;20029;-75
2022/06/14 05:56:06;;;;;;;1.02;1.02;;;13.60;99.90;;;;;;5052023;28;20067;-75
2022/06/14 05:58:37;;;;;;;0.70;0.43;;;13.60;99.90;;;;;;5053746;28;20032;-75
2022/06/14 06:01:11;;;;;;;2.75;0.50;;;13.40;99.90;;;;;;5057732;28;20910;-75
2022/06/14 06:04:08;;;;;;;2.85;0.52;;;13.50;99.90;;;;;;5035423;28;20125;-78
2022/06/14 06:06:41;;;;;;;0.73;0.73;;;13.60;99.90;;;;;;5036481;28;20029;-76
2022/06/14 06:09:21;;;;;;;0.60;0.32;;;13.80;99.90;;;;;;5035615;28;20037;-75
2022/06/14 06:12:09;;;;;;;2.92;0.73;;;13.80;99.90;;;;;;5040371;28;20079;-76
2022/06/14 06:14:38;;;;;;;0.40;0.40;;;13.90;99.90;;;;;;5037748;28;20212;-76
2022/06/14 06:17:10;;;;;;;4.65;0.45;;;14.10;99.60;;;;;;5030368;28;20034;-74
2022/06/14 06:19:46;;;;;;;5.57;0.50;;;14.20;98.10;;;;;;5042870;28;20101;-75
2022/06/14 06:22:36;;;;;;;3.17;0.77;;;14.40;97.80;;;;;;5031794;28;20558;-79
2022/06/14 06:25:18;;;;;;;4.10;1.58;;;14.40;97.50;;;;;;5032281;28;20570;-78
2022/06/14 06:27:50;;;;;;;1.25;0.65;;;14.40;98.10;;;;;;5031575;28;20626;-79
2022/06/14 06:30:39;;;;;;;4.82;0.73;;;14.40;97.00;;;;;;5042868;28;20032;-78
2022/06/14 06:33:19;;;;;;;2.28;1.65;;;14.40;97.20;;;;;;5041689;28;20033;-78
2022/06/14 06:36:20;;;;;;;6.75;1.13;;;14.40;96.80;;;;;;5036935;28;20064;-78
2022/06/14 06:39:21;;;;;;;0.30;0.30;;;14.60;96.00;;;;;;5050616;28;20062;-77
2022/06/14 06:41:55;;;;;;;3.20;0.98;;;14.70;95.30;;;;;;5052953;28;20029;-78
2022/06/14 06:44:39;;;;;;;1.27;0.40;;;14.80;95.50;;;;;;5048486;28;20033;-78
2022/06/14 06:47:07;;;;;;;0.50;0.50;;;15.00;94.30;;;;;;5034260;28;20022;-78
2022/06/14 06:49:46;;;;;;;0.50;0.50;;;15.00;94.40;;;;;;5037199;28;20030;-80
2022/06/14 06:52:14;;;;;;;3.92;1.52;;;15.10;94.50;;;;;;5040088;28;20041;-78
2022/06/14 06:54:54;;;;;;;0.98;0.40;;;15.50;94.50;;;;;;5040872;28;20036;-77
2022/06/14 06:57:23;;;;;;;1.25;0.95;;;15.70;91.80;;;;;;5035504;28;20029;-77
2022/06/14 06:59:51;;;;;;;0.40;0.40;;;15.90;91.30;;;;;;5046781;28;20436;-78
2022/06/14 07:02:30;;;;;;;0.47;0.47;;;15.80;90.70;;;;;;5053174;28;20117;-80
2022/06/14 07:05:03;;;;;;;1.40;0.30;;;15.70;90.80;;;;;;5043719;28;20033;-78
2022/06/14 07:08:00;;;;;;;2.80;0.82;;;15.80;90.70;;;;;;5035909;28;20059;-75
2022/06/14 07:10:38;;;;;;;0.85;0.35;;;16.00;89.30;;;;;;5044505;28;20467;-80
2022/06/14 07:13:10;;;;;;;0.98;0.63;;;16.00;89.20;;;;;;5042031;28;20029;-76
2022/06/14 07:15:49;;;;;;;3.63;0.63;;;15.90;90.30;;;;;;5048428;28;20383;-76
2022/06/14 07:18:26;;;;;;;0.45;0.40;;;15.70;87.50;;;;;;5034212;28;20392;-75
2022/06/14 07:21:11;;;;;;;0.50;0.50;;;15.70;88.10;;;;;;5048040;28;20048;-73
2022/06/14 07:23:44;;;;;;;3.25;0.30;;;15.70;88.80;;;;;;5048179;28;20063;-76
2022/06/14 07:26:30;;;;;;;0.68;0.50;;;15.60;87.60;;;;;;5050136;28;20060;-75
2022/06/14 07:29:18;;;;;;;3.75;1.45;;;15.80;87.70;;;;;;5040820;28;20197;-75
2022/06/14 07:31:57;;;;;;;0.30;0.30;;;15.90;86.70;;;;;;5047112;28;20037;-75
2022/06/14 07:34:24;;;;;;;2.75;0.57;;;15.80;88.00;;;;;;5035380;28;20049;-75
2022/06/14 07:37:14;;;;;;;0.68;0.43;;;15.80;86.40;;;;;;5045481;28;20033;-75
2022/06/14 07:40:02;;;;;;;4.17;0.70;;;16.10;87.20;;;;;;5045430;28;20025;-75
2022/06/14 07:42:40;;;;;;;2.95;0.50;;;16.60;85.20;;;;;;5050078;28;20071;-75
2022/06/14 07:45:17;;;;;;;3.13;0.57;;;16.80;82.40;;;;;;5049419;28;20052;-74
2022/06/14 07:47:52;;;;;;;3.47;0.88;;;16.40;81.70;;;;;;5036551;28;20033;-76
2022/06/14 07:50:42;;;;;;;0.98;0.30;;;16.20;84.20;;;;;;5056218;28;20060;-74
2022/06/14 07:53:20;;;;;;;2.35;0.77;;;16.30;85.40;;;;;;5039179;28;20029;-75
2022/06/14 07:55:47;;;;;;;0.45;0.45;;;16.50;83.10;;;;;;5046544;28;20033;-76
2022/06/14 07:58:24;;;;;;;3.40;0.75;;;16.40;82.40;;;;;;5042650;28;20054;-79
2022/06/14 08:01:07;;;;;;;2.47;0.80;;;16.60;82.80;;;;;;5036552;28;20033;-75
2022/06/14 08:03:45;;;;;;;1.95;0.80;;;16.60;82.10;;;;;;5036328;28;20380;-74
2022/06/14 08:06:37;;;;;;;1.88;0.65;;;16.80;82.80;;;;;;5043428;28;20034;-75
2022/06/14 08:09:16;;;;;;;0.40;0.40;;;16.80;81.00;;;;;;5036413;28;20021;-75
2022/06/14 08:11:53;;;;;;;4.50;0.50;;;16.80;78.20;;;;;;5042604;28;20133;-75
2022/06/14 08:14:45;;;;;;;1.38;0.60;;;16.80;79.00;;;;;;5046711;28;20036;-73
2022/06/14 08:17:17;;;;;;;5.38;1.00;;;16.50;76.70;;;;;;5035062;28;20423;-74
2022/06/14 08:19:55;;;;;;;0.15;0.10;;;16.60;78.30;;;;;;5036602;28;20507;-73
2022/06/14 08:22:33;;;;;;;1.20;0.40;;;16.80;79.30;;;;;;5036311;28;20053;-74
2022/06/14 08:25:05;;;;;;;1.08;0.40;;;16.80;75.70;;;;;;5033923;28;20392;-74
2022/06/14 08:27:36;;;;;;;0.47;0.40;;;16.80;76.40;;;;;;5032465;28;20425;-73
2022/06/14 08:30:09;;;;;;;0.35;0.32;;;16.80;74.10;;;;;;5043955;28;20082;-74
2022/06/14 08:32:40;;;;;;;0.75;0.55;;;16.70;75.00;;;;;;5051262;28;20029;-74
2022/06/14 08:35:22;;;;;;;0.98;0.25;;;16.80;74.90;;;;;;5036407;28;20052;-74
2022/06/14 08:38:06;;;;;;;4.03;0.50;;;17.10;75.00;;;;;;5038479;28;20084;-74
2022/06/14 08:40:47;;;;;;;1.95;0.70;;;17.30;72.40;;;;;;5036839;28;20060;-74
2022/06/14 08:43:26;;;;;;;0.55;0.38;;;17.40;71.80;;;;;;5045844;28;20028;-74
2022/06/14 08:46:17;;;;;;;0.73;0.30;;;17.70;72.70;;;;;;5046791;28;20037;-73
2022/06/14 08:49:08;;;;;;;0.38;0.28;;;17.80;70.20;;;;;;5032403;28;20428;-74
2022/06/14 08:51:54;;;;;;;0.63;0.50;;;17.90;68.30;;;;;;5031472;28;20479;-74
2022/06/14 08:54:46;;;;;;;1.60;1.00;;;18.00;69.00;;;;;;5030751;28;20048;-74
2022/06/14 08:57:42;;;;;;;0.47;0.47;;;18.00;68.00;;;;;;5041051;28;20029;-74
2022/06/14 09:00:26;;;;;;;0.35;0.35;;;17.90;68.50;;;;;;5042162;28;20024;-74
2022/06/14 09:03:28;;;;;;;1.63;0.45;;;17.50;64.80;;;;;;5040861;28;20021;-74
2022/06/14 09:06:08;;;;;;;2.10;0.57;;;17.50;64.70;;;;;;5037434;28;20021;-74
2022/06/14 09:08:52;;;;;;;0.25;0.25;;;17.40;63.60;;;;;;5036512;28;20048;-74
2022/06/14 09:11:17;;;;;;;0.22;0.17;;;17.40;65.50;;;;;;5037535;28;20029;-74
2022/06/14 09:14:02;;;;;;;0.20;0.20;;;17.70;64.00;;;;;;5040244;28;20033;-74
2022/06/14 09:16:46;;;;;;;3.15;0.20;;;18.10;64.00;;;;;;5042767;28;20037;-73
2022/06/14 09:19:45;;;;;;;2.97;0.22;;;18.00;60.90;;;;;;5029585;28;20037;-73
2022/06/14 09:23:03;;;;;;;2.33;0.45;;;18.40;62.60;;;;;;5041410;28;20021;-73
2022/06/14 09:26:06;;;;;;;0.52;0.40;;;18.60;61.80;;;;;;5039773;28;20395;-74
2022/06/14 09:28:53;;;;;;;1.17;0.57;;;18.50;61.00;;;;;;5042153;28;20021;-74
2022/06/14 09:31:30;;;;;;;0.28;0.28;;;18.60;60.60;;;;;;5045122;28;20538;-72
2022/06/14 09:34:14;;;;;;;1.90;0.75;;;18.70;61.60;;;;;;5045262;28;20160;-73
2022/06/14 09:37:07;;;;;;;0.15;0.10;;;18.60;60.90;;;;;;5029808;28;20037;-79
2022/06/14 09:40:29;;;;;;;0.15;0.15;;;18.60;61.90;;;;;;5042581;28;20056;-78
2022/06/14 09:43:43;;;;;;;2.35;0.45;;;18.50;61.70;;;;;;5042896;28;20399;-79
2022/06/14 09:46:33;;;;;;;1.02;0.68;;;18.40;61.50;;;;;;5069460;28;20024;-78
2022/06/14 09:49:24;;;;;;;1.05;0.65;;;18.00;62.50;;;;;;5059098;28;20028;-77
2022/06/14 09:52:38;;;;;;;0.70;0.40;;;18.00;62.60;;;;;;5048125;28;20091;-76
2022/06/14 09:55:31;;;;;;;0.28;0.28;;;18.00;64.10;;;;;;5029753;28;20121;-76
2022/06/14 09:58:18;;;;;;;0.30;0.30;;;18.20;63.50;;;;;;5036380;28;20029;-76
2022/06/14 10:01:16;;;;;;;2.13;0.45;;;18.40;61.90;;;;;;5049389;28;20044;-75
2022/06/14 10:04:05;;;;;;;0.20;0.20;;;18.30;62.40;;;;;;5045116;28;20036;-78
2022/06/14 10:07:08;;;;;;;0.28;0.20;;;18.40;61.70;;;;;;5049284;28;20025;-76
2022/06/14 10:09:55;;;;;;;0.70;0.65;;;18.10;61.40;;;;;;5049236;28;20077;-76
2022/06/14 10:12:43;;;;;;;0.52;0.43;;;18.00;62.40;;;;;;5034799;28;20365;-76
2022/06/14 10:15:18;;;;;;;1.73;0.38;;;18.40;61.80;;;;;;5037842;28;20032;-76
2022/06/14 10:18:03;;;;;;;0.80;0.50;;;18.70;60.80;;;;;;5069515;28;20017;-77
2022/06/14 10:20:55;;;;;;;0.32;0.32;;;18.70;60.80;;;;;;5069609;28;20532;-77
2022/06/14 10:23:34;;;;;;;0.38;0.32;;;18.80;61.10;;;;;;5069315;28;20032;-77
2022/06/14 10:29:26;;;;;;;3.58;0.85;;;18.80;61.20;;;;;;5049098;28;20044;-76
2022/06/14 10:32:19;;;;;;;1.20;1.10;;;19.50;60.30;;;;;;5036361;28;20025;-76
2022/06/14 10:34:59;;;;;;;0.52;0.43;;;19.60;58.20;;;;;;5040856;28;20049;-77
2022/06/14 10:37:52;;;;;;;1.63;0.40;;;19.50;59.30;;;;;;5047660;28;20492;-77
2022/06/14 10:40:53;;;;;;;0.20;0.20;;;19.40;58.50;;;;;;5049161;28;20281;-76
2022/06/14 10:43:46;;;;;;;2.30;0.63;;;19.50;57.60;;;;;;5049262;28;20218;-77
2022/06/14 10:46:17;;;;;;;2.28;0.73;;;19.50;57.80;;;;;;5042112;28;20113;-76
2022/06/14 10:49:07;;;;;;;2.45;0.65;;;19.40;57.30;;;;;;5043716;28;20072;-76
2022/06/14 10:52:11;;;;;;;2.85;0.90;;;19.30;57.40;;;;;;5037781;28;20021;-76
2022/06/14 10:54:55;;;;;;;0.25;0.25;;;19.20;57.90;;;;;;5049181;28;20040;-76
2022/06/14 10:58:00;;;;;;;0.40;0.40;;;19.20;58.70;;;;;;5038276;28;20123;-76
2022/06/14 11:01:24;;;;;;;0.60;0.60;;;19.30;59.10;;;;;;5039538;28;20683;-76
2022/06/14 11:04:12;;;;;;;0.30;0.30;;;19.90;58.90;;;;;;5033140;28;20036;-76
2022/06/14 11:07:02;;;;;;;0.47;0.47;;;20.70;58.60;;;;;;5041936;28;20037;-76
2022/06/14 11:09:46;;;;;;;0.75;0.50;;;20.90;55.60;;;;;;5045972;28;20037;-76
2022/06/14 11:12:41;;;;;;;0.40;0.35;;;20.80;55.60;;;;;;5045831;28;20033;-76
2022/06/14 11:15:19;;;;;;;2.08;0.38;;;21.20;55.50;;;;;;5048706;28;20036;-76
2022/06/14 11:18:24;;;;;;;0.90;0.85;;;20.20;55.20;;;;;;5050947;28;20499;-76
2022/06/14 11:21:13;;;;;;;0.75;0.50;;;20.40;55.70;;;;;;5051498;28;20021;-76
2022/06/14 11:24:01;;;;;;;0.20;0.20;;;20.30;55.80;;;;;;5052308;28;20055;-76
2022/06/14 11:26:35;;;;;;;2.13;0.40;;;19.80;55.50;;;;;;5049494;28;20115;-76
2022/06/14 11:29:14;;;;;;;1.00;0.40;;;20.00;56.40;;;;;;5042816;28;20021;-77
2022/06/14 11:32:02;;;;;;;0.43;0.43;;;20.20;55.70;;;;;;5051530;28;20036;-76
2022/06/14 11:35:06;;;;;;;0.50;0.50;;;20.60;55.50;;;;;;5065504;28;20452;-77
2022/06/14 11:38:13;;;;;;;0.40;0.40;;;20.80;54.70;;;;;;5054440;28;20506;-76
2022/06/14 11:40:47;;;;;;;0.30;0.30;;;21.10;53.00;;;;;;5012163;28;20038;-75
2022/06/14 11:43:31;;;;;;;1.35;0.60;;;20.50;53.20;;;;;;5041984;28;20036;-77
2022/06/14 11:46:00;;;;;;;0.90;0.20;;;20.30;54.40;;;;;;5045573;28;20380;-76
2022/06/14 11:48:34;;;;;;;0.25;0.25;;;20.10;54.20;;;;;;5071872;28;20021;-77
2022/06/14 11:51:15;;;;;;;0.77;0.63;;;20.20;55.90;;;;;;5058835;28;20110;-76
2022/06/14 11:54:05;;;;;;;0.25;0.25;;;20.40;55.30;;;;;;5044697;28;20056;-77
2022/06/14 11:56:57;;;;;;;1.23;0.75;;;20.50;55.20;;;;;;5051849;28;20029;-77
2022/06/14 11:59:34;;;;;;;;;;;20.60;55.70;;;;;;5058536;28;20029;-77
2022/06/14 12:02:32;;;;;;;0.55;0.50;;;21.10;54.00;;;;;;5047270;28;19916;-76
2022/06/14 12:05:07;;;;;;;0.60;0.60;;;21.80;53.80;;;;;;5051988;28;20028;-77
2022/06/14 12:07:37;;;;;;;2.10;0.40;;;22.20;52.30;;;;;;5050319;28;20211;-77
2022/06/14 12:10:34;;;;;;;1.00;0.50;;;22.20;52.20;;;;;;5051506;28;20085;-77
2022/06/14 12:13:07;;;;;;;1.55;0.50;;;22.30;51.20;;;;;;5051721;28;20036;-77
2022/06/14 12:16:00;;;;;;;0.50;0.45;;;23.70;50.40;;;;;;5046415;28;20028;-77
2022/06/14 12:18:30;;;;;;;1.48;0.50;;;23.70;48.40;;;;;;5046318;28;20048;-77
2022/06/14 12:21:04;;;;;;;0.60;0.37;;;23.60;49.40;;;;;;5051264;28;20028;-76
2022/06/14 12:23:43;;;;;;;0.40;0.40;;;22.80;48.40;;;;;;5051126;28;20364;-76
2022/06/14 12:26:35;;;;;;;0.93;0.50;;;22.20;49.60;;;;;;5051152;28;20025;-76
2022/06/14 12:29:21;;;;;;;0.68;0.50;;;21.50;49.40;;;;;;5046661;28;20102;-76
2022/06/14 12:32:16;;;;;;;0.35;0.30;;;21.00;50.20;;;;;;5051781;28;20112;-76
2022/06/14 12:34:49;;;;;;;3.03;0.88;;;21.30;50.60;;;;;;5051357;28;20454;-77
2022/06/14 12:37:37;;;;;;;0.55;0.55;;;22.10;51.20;;;;;;5047486;28;20116;-77
2022/06/14 12:40:18;;;;;;;7.03;0.77;;;23.80;49.40;;;;;;5039762;28;20033;-78
2022/06/14 12:43:20;;;;;;;0.60;0.27;;;23.40;47.40;;;;;;5051333;28;20090;-78
2022/06/14 12:46:00;;;;;;;1.50;0.45;;;22.90;48.70;;;;;;5037443;28;20046;-76
2022/06/14 12:48:44;;;;;;;0.40;0.30;;;22.80;49.30;;;;;;5050888;28;20082;-75
2022/06/14 12:51:16;;;;;;;1.15;0.43;;;22.60;51.30;;;;;;5053112;28;20033;-76
2022/06/14 12:53:56;;;;;;;1.00;0.75;;;22.40;50.20;;;;;;5056960;28;20028;-77
2022/06/14 12:56:33;;;;;;;1.17;0.50;;;22.80;49.90;;;;;;5066837;28;20036;-78
2022/06/14 12:59:43;;;;;;;0.63;0.63;;;23.30;48.90;;;;;;5047873;28;20033;-76
2022/06/14 13:02:35;;;;;;;0.47;0.40;;;24.10;46.40;;;;;;5044435;28;20029;-78
2022/06/14 13:05:11;;;;;;;0.60;0.30;;;25.20;45.30;;;;;;5038061;28;20037;-76
2022/06/14 13:08:04;;;;;;;0.30;0.30;;;26.60;44.40;;;;;;5046776;28;20035;-77
2022/06/14 13:11:08;;;;;;;2.70;0.40;;;28.20;40.90;;;;;;5071050;28;20070;-76
2022/06/14 13:13:44;;;;;;;1.17;0.43;;;26.00;41.60;;;;;;5070756;28;20028;-77
2022/06/14 13:16:33;;;;;;;1.40;0.60;;;23.80;44.20;;;;;;5052693;28;20060;-81
2022/06/14 13:19:08;;;;;;;0.40;0.40;;;23.60;47.10;;;;;;5051826;28;20018;-85
2022/06/14 13:21:52;;;;;;;1.60;0.50;;;24.80;44.90;;;;;;5037643;28;20021;-82
2022/06/14 13:24:37;;;;;;;0.85;0.55;;;27.80;41.20;;;;;;5044239;28;20521;-84
2022/06/14 13:27:25;;;;;;;1.05;0.68;;;30.20;37.20;;;;;;5051294;28;20115;-80
2022/06/14 13:30:19;;;;;;;0.95;0.50;;;32.30;33.90;;;;;;5044113;28;20503;-83
2022/06/14 13:32:58;;;;;;;0.47;0.30;;;32.00;34.50;;;;;;5042719;28;20063;-80
2022/06/14 13:35:43;;;;;;;2.13;0.70;;;32.30;34.20;;;;;;5036045;28;20043;-83
2022/06/14 13:38:11;;;;;;;0.45;0.45;;;30.30;33.20;;;;;;5043741;28;20036;-83
2022/06/14 13:40:49;;;;;;;1.98;0.65;;;30.00;34.20;;;;;;5049725;28;20020;-81
2022/06/14 13:43:27;;;;;;;0.35;0.30;;;30.10;33.70;;;;;;5030621;28;20038;-81
2022/06/14 13:46:05;;;;;;;6.53;0.90;;;31.00;33.80;;;;;;5040536;28;20024;-82
2022/06/14 13:48:38;;;;;;;0.88;0.38;;;28.80;35.90;;;;;;5040169;28;20453;-82
2022/06/14 13:51:32;;;;;;;1.38;0.70;;;26.50;39.20;;;;;;5049001;28;20418;-84
2022/06/14 13:54:33;;;;;;;1.05;0.40;;;27.10;40.30;;;;;;5038901;28;20041;-82
2022/06/14 13:57:30;;;;;;;1.45;0.63;;;29.90;35.60;;;;;;5046694;28;20033;-81
2022/06/14 14:00:05;;;;;;;0.35;0.35;;;28.90;35.80;;;;;;5061807;28;20445;-82
2022/06/14 14:02:40;;;;;;;0.70;0.60;;;28.50;38.40;;;;;;5036894;28;20025;-82
2022/06/14 14:05:16;;;;;;;0.90;0.40;;;31.10;35.10;;;;;;5049909;28;20033;-83
2022/06/14 14:07:58;;;;;;;0.20;0.20;;;33.50;32.90;;;;;;5051422;28;20054;-82
2022/06/14 14:10:41;;;;;;;0.55;0.50;;;36.60;30.90;;;;;;5044267;28;20032;-83